sensor_id;sensor_type;location;lat;lon;timestamp;pressure;altitude;pressure_sealevel;temperature;humidity
13080;BME280;6606;49.154;9.280;2022-09-09T00:02:18;99211.66;;;15.90;100.00
13080;BME280;6606;49.154;9.280;2022-09-09T00:04:52;99206.56;;;15.87;100.00
13080;BME280;6606;49.154;9.280;2022-09-09T00:07:28;99213.75;;;15.75;100.00
13080;BME280;6606;49.154;9.280;2022-09-09T00:10:04;99207.53;;;15.74;100.00
13080;BME280;6606;49.154;9.280;2022-09-09T00:12:39;99208.88;;;15.69;100.00
13080;BME280;6606;49.154;9.280;2022-09-09T00:15:12;99209.75;;;15.69;100.00
13080;BME280;6606;49.154;9.280;2022-09-09T00:17:43;99205.59;;;15.76;100.00
13080;BME280;6606;49.154;9.280;2022-09-09T00:20:21;99203.16;;;15.85;100.00
13080;BME280;6606;49.154;9.280;2022-09-09T00:22:55;99197.19;;;16.03;100.00
13080;BME280;6606;49.154;9.280;2022-09-09T00:25:28;99196.78;;;16.19;100.00
13080;BME280;6606;49.154;9.280;2022-09-09T00:28:00;99194.56;;;16.47;100.00
13080;BME280;6606;49.154;9.280;2022-09-09T00:30:31;99191.25;;;16.87;100.00
13080;BME280;6606;49.154;9.280;2022-09-09T00:33:08;99191.94;;;17.00;100.00
13080;BME280;6606;49.154;9.280;2022-09-09T00:35:40;99200.03;;;17.10;100.00
13080;BME280;6606;49.154;9.280;2022-09-09T00:38:12;99197.66;;;17.38;100.00
13080;BME280;6606;49.154;9.280;2022-09-09T00:40:45;99195.50;;;17.52;100.00
13080;BME280;6606;49.154;9.280;2022-09-09T00:43:24;99195.94;;;17.57;100.00
13080;BME280;6606;49.154;9.280;2022-09-09T00:48:59;99213.88;;;17.88;100.00
13080;BME280;6606;49.154;9.280;2022-09-09T00:51:39;99210.25;;;17.98;100.00
13080;BME280;6606;49.154;9.280;2022-09-09T00:54:21;99202.09;;;18.10;100.00
13080;BME280;6606;49.154;9.280;2022-09-09T00:57:01;99207.75;;;18.07;100.00
13080;BME280;6606;49.154;9.280;2022-09-09T00:59:36;99199.00;;;18.14;100.00
13080;BME280;6606;49.154;9.280;2022-09-09T01:02:14;99203.25;;;18.17;100.00
13080;BME280;6606;49.154;9.280;2022-09-09T01:04:42;99217.06;;;18.12;100.00
13080;BME280;6606;49.154;9.280;2022-09-09T01:07:16;99216.94;;;18.14;100.00
13080;BME280;6606;49.154;9.280;2022-09-09T01:09:51;99221.91;;;18.18;100.00
13080;BME280;6606;49.154;9.280;2022-09-09T01:12:26;99224.16;;;18.13;100.00
13080;BME280;6606;49.154;9.280;2022-09-09T01:15:01;99223.75;;;18.18;100.00
13080;BME280;6606;49.154;9.280;2022-09-09T01:17:33;99231.50;;;18.21;100.00
13080;BME280;6606;49.154;9.280;2022-09-09T01:20:13;99228.13;;;18.19;100.00
13080;BME280;6606;49.154;9.280;2022-09-09T01:23:02;99222.19;;;18.25;100.00
13080;BME280;6606;49.154;9.280;2022-09-09T01:26:09;99222.88;;;18.17;100.00
13080;BME280;6606;49.154;9.280;2022-09-09T01:28:38;99216.38;;;18.20;100.00
13080;BME280;6606;49.154;9.280;2022-09-09T01:31:13;99212.31;;;18.26;100.00
13080;BME280;6606;49.154;9.280;2022-09-09T01:33:45;99210.50;;;18.26;100.00
13080;BME280;6606;49.154;9.280;2022-09-09T01:36:15;99216.03;;;18.34;100.00
13080;BME280;6606;49.154;9.280;2022-09-09T01:38:48;99216.53;;;18.28;100.00
13080;BME280;6606;49.154;9.280;2022-09-09T01:41:17;99209.78;;;18.24;100.00
13080;BME280;6606;49.154;9.280;2022-09-09T01:43:54;99213.97;;;18.17;100.00
13080;BME280;6606;49.154;9.280;2022-09-09T01:46:22;99204.97;;;18.18;100.00
13080;BME280;6606;49.154;9.280;2022-09-09T01:48:49;99204.69;;;18.21;100.00
13080;BME280;6606;49.154;9.280;2022-09-09T01:51:17;99229.34;;;18.15;100.00
13080;BME280;6606;49.154;9.280;2022-09-09T01:53:45;99222.75;;;18.19;100.00
13080;BME280;6606;49.154;9.280;2022-09-09T01:56:25;99227.41;;;18.17;100.00
13080;BME280;6606;49.154;9.280;2022-09-09T01:59:18;99217.63;;;18.06;100.00
13080;BME280;6606;49.154;9.280;2022-09-09T02:02:03;99222.13;;;18.06;100.00
13080;BME280;6606;49.154;9.280;2022-09-09T02:04:38;99210.97;;;18.00;100.00
13080;BME280;6606;49.154;9.280;2022-09-09T02:07:21;99212.50;;;17.93;100.00
13080;BME280;6606;49.154;9.280;2022-09-09T02:09:57;99224.75;;;17.86;100.00
13080;BME280;6606;49.154;9.280;2022-09-09T02:12:27;99219.69;;;17.93;100.00
13080;BME280;6606;49.154;9.280;2022-09-09T02:15:02;99213.03;;;17.87;100.00
13080;BME280;6606;49.154;9.280;2022-09-09T02:17:38;99215.44;;;17.90;100.00
13080;BME280;6606;49.154;9.280;2022-09-09T02:20:14;99228.19;;;17.77;100.00
13080;BME280;6606;49.154;9.280;2022-09-09T02:22:49;99220.38;;;17.85;100.00
13080;BME280;6606;49.154;9.280;2022-09-09T02:25:20;99222.31;;;17.83;100.00
13080;BME280;6606;49.154;9.280;2022-09-09T02:27:51;99221.09;;;17.87;100.00
13080;BME280;6606;49.154;9.280;2022-09-09T02:30:18;99214.44;;;17.91;100.00
13080;BME280;6606;49.154;9.280;2022-09-09T02:32:54;99210.81;;;17.92;100.00
13080;BME280;6606;49.154;9.280;2022-09-09T02:35:31;99188.19;;;17.85;100.00
13080;BME280;6606;49.154;9.280;2022-09-09T02:38:02;99185.91;;;17.80;100.00
13080;BME280;6606;49.154;9.280;2022-09-09T02:40:30;99199.47;;;17.89;100.00
13080;BME280;6606;49.154;9.280;2022-09-09T02:43:02;99203.84;;;17.80;100.00
13080;BME280;6606;49.154;9.280;2022-09-09T02:45:36;99213.44;;;17.83;100.00
13080;BME280;6606;49.154;9.280;2022-09-09T02:48:10;99220.25;;;17.66;100.00
13080;BME280;6606;49.154;9.280;2022-09-09T02:50:55;99219.28;;;17.46;100.00
13080;BME280;6606;49.154;9.280;2022-09-09T02:53:38;99217.44;;;17.46;100.00
13080;BME280;6606;49.154;9.280;2022-09-09T02:56:10;99203.22;;;17.46;100.00
13080;BME280;6606;49.154;9.280;2022-09-09T02:58:44;99203.53;;;17.52;100.00
13080;BME280;6606;49.154;9.280;2022-09-09T03:01:12;99206.25;;;17.62;100.00
13080;BME280;6606;49.154;9.280;2022-09-09T03:03:39;99207.63;;;17.56;100.00
13080;BME280;6606;49.154;9.280;2022-09-09T03:06:10;99201.44;;;17.56;100.00
13080;BME280;6606;49.154;9.280;2022-09-09T03:08:38;99210.91;;;17.60;100.00
13080;BME280;6606;49.154;9.280;2022-09-09T03:11:05;99212.53;;;17.51;100.00
13080;BME280;6606;49.154;9.280;2022-09-09T03:13:34;99208.91;;;17.52;100.00
13080;BME280;6606;49.154;9.280;2022-09-09T03:16:03;99202.53;;;17.53;100.00
13080;BME280;6606;49.154;9.280;2022-09-09T03:18:35;99195.59;;;17.41;100.00
13080;BME280;6606;49.154;9.280;2022-09-09T03:21:02;99201.19;;;17.38;100.00
13080;BME280;6606;49.154;9.280;2022-09-09T03:23:29;99191.00;;;17.32;100.00
13080;BME280;6606;49.154;9.280;2022-09-09T03:25:58;99198.19;;;17.31;100.00
13080;BME280;6606;49.154;9.280;2022-09-09T03:28:34;99194.81;;;17.29;100.00
13080;BME280;6606;49.154;9.280;2022-09-09T03:31:04;99193.22;;;17.27;100.00
13080;BME280;6606;49.154;9.280;2022-09-09T03:33:36;99195.97;;;17.36;100.00
13080;BME280;6606;49.154;9.280;2022-09-09T03:36:03;99196.06;;;17.25;100.00
13080;BME280;6606;49.154;9.280;2022-09-09T03:38:30;99197.88;;;17.25;100.00
13080;BME280;6606;49.154;9.280;2022-09-09T03:40:58;99204.47;;;17.21;100.00
13080;BME280;6606;49.154;9.280;2022-09-09T03:43:27;99196.38;;;17.11;100.00
13080;BME280;6606;49.154;9.280;2022-09-09T03:45:54;99194.59;;;17.00;100.00
13080;BME280;6606;49.154;9.280;2022-09-09T03:48:24;99188.66;;;16.97;100.00
13080;BME280;6606;49.154;9.280;2022-09-09T03:50:54;99188.72;;;16.85;100.00
13080;BME280;6606;49.154;9.280;2022-09-09T03:53:24;99185.94;;;16.76;100.00
13080;BME280;6606;49.154;9.280;2022-09-09T03:55:53;99191.19;;;16.77;100.00
13080;BME280;6606;49.154;9.280;2022-09-09T03:58:22;99191.41;;;16.74;100.00
13080;BME280;6606;49.154;9.280;2022-09-09T04:00:54;99187.63;;;16.77;100.00
13080;BME280;6606;49.154;9.280;2022-09-09T04:03:21;99186.38;;;16.92;100.00
13080;BME280;6606;49.154;9.280;2022-09-09T04:05:51;99185.84;;;16.98;100.00
13080;BME280;6606;49.154;9.280;2022-09-09T04:08:20;99181.75;;;16.94;100.00
13080;BME280;6606;49.154;9.280;2022-09-09T04:10:48;99196.34;;;16.90;100.00
13080;BME280;6606;49.154;9.280;2022-09-09T04:13:17;99197.41;;;16.99;100.00
13080;BME280;6606;49.154;9.280;2022-09-09T04:15:51;99198.13;;;17.01;100.00
13080;BME280;6606;49.154;9.280;2022-09-09T04:18:18;99212.34;;;17.01;100.00
13080;BME280;6606;49.154;9.280;2022-09-09T04:20:47;99214.44;;;16.98;100.00
13080;BME280;6606;49.154;9.280;2022-09-09T04:23:16;99219.94;;;16.96;100.00
13080;BME280;6606;49.154;9.280;2022-09-09T04:25:44;99224.69;;;16.92;100.00
13080;BME280;6606;49.154;9.280;2022-09-09T04:28:12;99218.97;;;16.97;100.00
13080;BME280;6606;49.154;9.280;2022-09-09T04:30:39;99220.72;;;17.08;100.00
13080;BME280;6606;49.154;9.280;2022-09-09T04:33:06;99217.03;;;16.99;100.00
13080;BME280;6606;49.154;9.280;2022-09-09T04:35:33;99211.78;;;16.98;100.00
13080;BME280;6606;49.154;9.280;2022-09-09T04:38:00;99226.09;;;17.08;100.00
13080;BME280;6606;49.154;9.280;2022-09-09T04:40:31;99221.06;;;17.14;100.00
13080;BME280;6606;49.154;9.280;2022-09-09T04:42:58;99213.75;;;17.17;100.00
13080;BME280;6606;49.154;9.280;2022-09-09T04:45:25;99205.91;;;17.25;100.00
13080;BME280;6606;49.154;9.280;2022-09-09T04:47:52;99215.91;;;17.23;100.00
13080;BME280;6606;49.154;9.280;2022-09-09T04:50:20;99217.78;;;17.32;100.00
13080;BME280;6606;49.154;9.280;2022-09-09T04:52:47;99226.69;;;17.32;100.00
13080;BME280;6606;49.154;9.280;2022-09-09T04:55:14;99222.97;;;17.24;100.00
13080;BME280;6606;49.154;9.280;2022-09-09T04:57:44;99233.88;;;17.32;100.00
13080;BME280;6606;49.154;9.280;2022-09-09T05:00:12;99242.38;;;17.37;100.00
13080;BME280;6606;49.154;9.280;2022-09-09T05:02:40;99242.28;;;17.27;100.00
13080;BME280;6606;49.154;9.280;2022-09-09T05:05:08;99243.59;;;17.33;100.00
13080;BME280;6606;49.154;9.280;2022-09-09T05:07:36;99252.81;;;17.40;100.00
13080;BME280;6606;49.154;9.280;2022-09-09T05:10:04;99244.06;;;17.38;100.00
13080;BME280;6606;49.154;9.280;2022-09-09T05:12:31;99235.91;;;17.40;100.00
13080;BME280;6606;49.154;9.280;2022-09-09T05:14:59;99250.31;;;17.48;100.00
13080;BME280;6606;49.154;9.280;2022-09-09T05:17:27;99246.53;;;17.51;100.00
13080;BME280;6606;49.154;9.280;2022-09-09T05:19:54;99242.56;;;17.45;100.00
13080;BME280;6606;49.154;9.280;2022-09-09T05:22:21;99246.72;;;17.38;100.00
13080;BME280;6606;49.154;9.280;2022-09-09T05:24:49;99253.47;;;17.53;100.00
13080;BME280;6606;49.154;9.280;2022-09-09T05:27:17;99264.50;;;17.60;100.00
13080;BME280;6606;49.154;9.280;2022-09-09T05:29:46;99267.44;;;17.57;100.00
13080;BME280;6606;49.154;9.280;2022-09-09T05:32:15;99269.00;;;17.59;100.00
13080;BME280;6606;49.154;9.280;2022-09-09T05:34:44;99267.31;;;17.58;100.00
13080;BME280;6606;49.154;9.280;2022-09-09T05:37:12;99274.44;;;17.48;100.00
13080;BME280;6606;49.154;9.280;2022-09-09T05:39:39;99276.41;;;17.46;100.00
13080;BME280;6606;49.154;9.280;2022-09-09T05:42:05;99269.16;;;17.37;100.00
13080;BME280;6606;49.154;9.280;2022-09-09T05:44:32;99268.63;;;17.43;100.00
13080;BME280;6606;49.154;9.280;2022-09-09T05:47:00;99271.66;;;17.50;100.00
13080;BME280;6606;49.154;9.280;2022-09-09T05:49:28;99274.16;;;17.51;100.00
13080;BME280;6606;49.154;9.280;2022-09-09T05:51:55;99272.59;;;17.49;100.00
13080;BME280;6606;49.154;9.280;2022-09-09T05:54:22;99276.28;;;17.48;100.00
13080;BME280;6606;49.154;9.280;2022-09-09T05:56:51;99271.69;;;17.59;100.00
13080;BME280;6606;49.154;9.280;2022-09-09T05:59:18;99271.94;;;17.77;100.00
13080;BME280;6606;49.154;9.280;2022-09-09T06:01:46;99272.78;;;17.99;100.00
13080;BME280;6606;49.154;9.280;2022-09-09T06:04:21;99270.75;;;18.22;100.00
13080;BME280;6606;49.154;9.280;2022-09-09T06:06:51;99268.91;;;18.13;100.00
13080;BME280;6606;49.154;9.280;2022-09-09T06:09:20;99260.50;;;18.37;100.00
13080;BME280;6606;49.154;9.280;2022-09-09T06:11:46;99273.94;;;18.37;100.00
13080;BME280;6606;49.154;9.280;2022-09-09T06:14:14;99268.72;;;18.55;100.00
13080;BME280;6606;49.154;9.280;2022-09-09T06:16:45;99271.75;;;18.71;100.00
13080;BME280;6606;49.154;9.280;2022-09-09T06:19:19;99271.22;;;18.87;100.00
13080;BME280;6606;49.154;9.280;2022-09-09T06:21:46;99278.16;;;18.89;100.00
13080;BME280;6606;49.154;9.280;2022-09-09T06:24:16;99267.56;;;18.98;100.00
13080;BME280;6606;49.154;9.280;2022-09-09T06:26:45;99272.91;;;19.07;100.00
13080;BME280;6606;49.154;9.280;2022-09-09T06:29:16;99270.94;;;19.19;100.00
13080;BME280;6606;49.154;9.280;2022-09-09T06:31:44;99273.63;;;19.19;100.00
13080;BME280;6606;49.154;9.280;2022-09-09T06:34:18;99271.50;;;19.23;100.00
13080;BME280;6606;49.154;9.280;2022-09-09T06:36:49;99273.78;;;19.27;100.00
13080;BME280;6606;49.154;9.280;2022-09-09T06:39:17;99273.78;;;19.37;100.00
13080;BME280;6606;49.154;9.280;2022-09-09T06:41:45;99280.97;;;19.56;100.00
13080;BME280;6606;49.154;9.280;2022-09-09T06:44:38;99289.44;;;19.61;100.00
13080;BME280;6606;49.154;9.280;2022-09-09T06:47:07;99284.75;;;19.83;100.00
13080;BME280;6606;49.154;9.280;2022-09-09T06:49:34;99279.78;;;19.88;100.00
13080;BME280;6606;49.154;9.280;2022-09-09T06:52:04;99275.13;;;19.80;100.00
13080;BME280;6606;49.154;9.280;2022-09-09T06:54:33;99284.16;;;19.89;100.00
13080;BME280;6606;49.154;9.280;2022-09-09T06:57:03;99292.63;;;19.94;100.00
13080;BME280;6606;49.154;9.280;2022-09-09T06:59:32;99288.50;;;20.37;100.00
13080;BME280;6606;49.154;9.280;2022-09-09T07:01:59;99284.91;;;20.46;100.00
13080;BME280;6606;49.154;9.280;2022-09-09T07:04:27;99290.03;;;20.12;100.00
13080;BME280;6606;49.154;9.280;2022-09-09T07:06:54;99286.59;;;20.19;100.00
13080;BME280;6606;49.154;9.280;2022-09-09T07:09:23;99290.69;;;20.24;100.00
13080;BME280;6606;49.154;9.280;2022-09-09T07:11:53;99288.28;;;20.20;100.00
13080;BME280;6606;49.154;9.280;2022-09-09T07:14:21;99293.66;;;20.20;100.00
13080;BME280;6606;49.154;9.280;2022-09-09T07:16:53;99291.34;;;20.35;100.00
13080;BME280;6606;49.154;9.280;2022-09-09T07:19:21;99291.53;;;20.61;100.00
13080;BME280;6606;49.154;9.280;2022-09-09T07:21:50;99296.09;;;20.51;100.00
13080;BME280;6606;49.154;9.280;2022-09-09T07:24:19;99299.22;;;20.56;100.00
13080;BME280;6606;49.154;9.280;2022-09-09T07:26:46;99293.56;;;20.77;100.00
13080;BME280;6606;49.154;9.280;2022-09-09T07:29:15;99298.59;;;20.53;100.00
13080;BME280;6606;49.154;9.280;2022-09-09T07:31:41;99286.69;;;20.65;100.00
13080;BME280;6606;49.154;9.280;2022-09-09T07:34:12;99286.91;;;20.72;100.00
13080;BME280;6606;49.154;9.280;2022-09-09T07:36:40;99293.22;;;20.62;100.00
13080;BME280;6606;49.154;9.280;2022-09-09T07:39:12;99290.88;;;20.77;100.00
13080;BME280;6606;49.154;9.280;2022-09-09T07:41:44;99294.88;;;21.09;100.00
13080;BME280;6606;49.154;9.280;2022-09-09T07:44:16;99296.25;;;21.31;100.00
13080;BME280;6606;49.154;9.280;2022-09-09T07:46:45;99294.16;;;21.61;100.00
13080;BME280;6606;49.154;9.280;2022-09-09T07:49:16;99298.63;;;21.70;100.00
13080;BME280;6606;49.154;9.280;2022-09-09T07:51:45;99305.72;;;21.71;100.00
13080;BME280;6606;49.154;9.280;2022-09-09T07:54:16;99306.47;;;21.81;100.00
13080;BME280;6606;49.154;9.280;2022-09-09T07:56:46;99296.47;;;21.56;100.00
13080;BME280;6606;49.154;9.280;2022-09-09T07:59:16;99308.66;;;21.60;100.00
13080;BME280;6606;49.154;9.280;2022-09-09T08:01:48;99297.88;;;21.60;100.00
13080;BME280;6606;49.154;9.280;2022-09-09T08:04:22;99292.88;;;21.47;100.00
13080;BME280;6606;49.154;9.280;2022-09-09T08:06:51;99296.41;;;21.91;100.00
13080;BME280;6606;49.154;9.280;2022-09-09T08:09:20;99303.47;;;22.45;100.00
13080;BME280;6606;49.154;9.280;2022-09-09T08:11:50;99318.50;;;22.47;100.00
13080;BME280;6606;49.154;9.280;2022-09-09T08:14:18;99320.00;;;22.15;100.00
13080;BME280;6606;49.154;9.280;2022-09-09T08:16:47;99315.22;;;22.35;100.00
13080;BME280;6606;49.154;9.280;2022-09-09T08:19:18;99315.03;;;22.29;100.00
13080;BME280;6606;49.154;9.280;2022-09-09T08:21:46;99318.34;;;22.57;100.00
13080;BME280;6606;49.154;9.280;2022-09-09T08:24:14;99321.41;;;22.62;100.00
13080;BME280;6606;49.154;9.280;2022-09-09T08:26:45;99312.69;;;22.34;100.00
13080;BME280;6606;49.154;9.280;2022-09-09T08:29:13;99306.31;;;22.17;100.00
13080;BME280;6606;49.154;9.280;2022-09-09T08:31:43;99292.88;;;22.25;100.00
13080;BME280;6606;49.154;9.280;2022-09-09T08:34:11;99293.09;;;22.32;100.00
13080;BME280;6606;49.154;9.280;2022-09-09T08:36:39;99293.41;;;22.63;100.00
13080;BME280;6606;49.154;9.280;2022-09-09T08:39:09;99299.63;;;23.31;100.00
13080;BME280;6606;49.154;9.280;2022-09-09T08:41:45;99311.97;;;23.41;100.00
13080;BME280;6606;49.154;9.280;2022-09-09T08:44:23;99306.88;;;23.63;100.00
13080;BME280;6606;49.154;9.280;2022-09-09T08:47:04;99295.88;;;24.13;100.00
13080;BME280;6606;49.154;9.280;2022-09-09T08:49:55;99304.19;;;23.46;100.00
13080;BME280;6606;49.154;9.280;2022-09-09T08:52:28;99296.63;;;23.42;100.00
13080;BME280;6606;49.154;9.280;2022-09-09T08:54:59;99299.16;;;23.84;100.00
13080;BME280;6606;49.154;9.280;2022-09-09T08:57:28;99303.03;;;23.74;100.00
13080;BME280;6606;49.154;9.280;2022-09-09T08:59:57;99304.03;;;23.40;100.00
13080;BME280;6606;49.154;9.280;2022-09-09T09:02:31;99298.50;;;22.82;100.00
13080;BME280;6606;49.154;9.280;2022-09-09T09:05:15;99302.66;;;23.03;100.00
13080;BME280;6606;49.154;9.280;2022-09-09T09:07:56;99306.25;;;22.69;100.00
13080;BME280;6606;49.154;9.280;2022-09-09T09:10:36;99307.22;;;23.02;100.00
13080;BME280;6606;49.154;9.280;2022-09-09T09:13:12;99303.31;;;22.54;100.00
13080;BME280;6606;49.154;9.280;2022-09-09T09:15:42;99297.75;;;21.95;100.00
13080;BME280;6606;49.154;9.280;2022-09-09T09:18:12;99297.63;;;21.71;100.00
13080;BME280;6606;49.154;9.280;2022-09-09T09:20:49;99301.19;;;21.54;100.00
13080;BME280;6606;49.154;9.280;2022-09-09T09:23:22;99304.81;;;21.44;100.00
13080;BME280;6606;49.154;9.280;2022-09-09T09:25:50;99301.34;;;22.30;100.00
13080;BME280;6606;49.154;9.280;2022-09-09T09:28:22;99292.47;;;22.12;100.00
13080;BME280;6606;49.154;9.280;2022-09-09T09:30:55;99289.47;;;22.15;100.00
13080;BME280;6606;49.154;9.280;2022-09-09T09:33:29;99285.28;;;21.94;100.00
13080;BME280;6606;49.154;9.280;2022-09-09T09:35:59;99290.41;;;21.80;100.00
13080;BME280;6606;49.154;9.280;2022-09-09T09:38:28;99278.19;;;22.70;100.00
13080;BME280;6606;49.154;9.280;2022-09-09T09:40:59;99284.09;;;23.16;100.00
13080;BME280;6606;49.154;9.280;2022-09-09T09:43:29;99280.72;;;23.55;99.86
13080;BME280;6606;49.154;9.280;2022-09-09T09:45:58;99282.16;;;22.84;100.00
13080;BME280;6606;49.154;9.280;2022-09-09T09:48:27;99296.34;;;22.44;100.00
13080;BME280;6606;49.154;9.280;2022-09-09T09:50:56;99307.03;;;21.13;100.00
13080;BME280;6606;49.154;9.280;2022-09-09T09:53:26;99338.19;;;20.05;100.00
13080;BME280;6606;49.154;9.280;2022-09-09T09:55:56;99306.13;;;19.55;100.00
13080;BME280;6606;49.154;9.280;2022-09-09T09:58:25;99317.31;;;19.31;100.00
13080;BME280;6606;49.154;9.280;2022-09-09T10:00:54;99302.47;;;19.17;100.00
13080;BME280;6606;49.154;9.280;2022-09-09T10:03:28;99302.34;;;19.19;100.00
13080;BME280;6606;49.154;9.280;2022-09-09T10:05:56;99300.22;;;19.22;100.00
13080;BME280;6606;49.154;9.280;2022-09-09T10:08:24;99305.75;;;19.11;100.00
13080;BME280;6606;49.154;9.280;2022-09-09T10:11:20;99307.28;;;19.04;100.00
13080;BME280;6606;49.154;9.280;2022-09-09T10:13:59;99297.78;;;19.00;100.00
13080;BME280;6606;49.154;9.280;2022-09-09T10:16:38;99300.78;;;19.06;100.00
13080;BME280;6606;49.154;9.280;2022-09-09T10:19:13;99302.34;;;19.19;100.00
13080;BME280;6606;49.154;9.280;2022-09-09T10:21:58;99295.28;;;19.27;100.00
13080;BME280;6606;49.154;9.280;2022-09-09T10:24:47;99289.72;;;19.29;100.00
13080;BME280;6606;49.154;9.280;2022-09-09T10:27:20;99289.56;;;19.50;100.00
13080;BME280;6606;49.154;9.280;2022-09-09T10:30:01;99284.66;;;19.26;100.00
13080;BME280;6606;49.154;9.280;2022-09-09T10:32:40;99299.38;;;19.12;100.00
13080;BME280;6606;49.154;9.280;2022-09-09T10:35:24;99294.84;;;19.22;100.00
13080;BME280;6606;49.154;9.280;2022-09-09T10:38:03;99304.88;;;19.40;100.00
13080;BME280;6606;49.154;9.280;2022-09-09T10:40:33;99300.91;;;19.44;100.00
13080;BME280;6606;49.154;9.280;2022-09-09T10:43:14;99306.69;;;19.88;100.00
13080;BME280;6606;49.154;9.280;2022-09-09T10:45:53;99305.56;;;19.81;100.00
13080;BME280;6606;49.154;9.280;2022-09-09T10:48:31;99296.44;;;20.01;100.00
13080;BME280;6606;49.154;9.280;2022-09-09T10:51:11;99295.28;;;20.41;100.00
13080;BME280;6606;49.154;9.280;2022-09-09T10:53:50;99297.13;;;20.68;100.00
13080;BME280;6606;49.154;9.280;2022-09-09T10:56:20;99305.88;;;20.80;100.00
13080;BME280;6606;49.154;9.280;2022-09-09T10:58:52;99299.88;;;20.86;100.00
13080;BME280;6606;49.154;9.280;2022-09-09T11:01:22;99304.97;;;21.25;100.00
13080;BME280;6606;49.154;9.280;2022-09-09T11:03:54;99304.19;;;21.94;100.00
13080;BME280;6606;49.154;9.280;2022-09-09T11:06:27;99297.09;;;22.20;100.00
13080;BME280;6606;49.154;9.280;2022-09-09T11:08:57;99286.28;;;22.62;100.00
13080;BME280;6606;49.154;9.280;2022-09-09T11:11:32;99284.31;;;22.80;100.00
13080;BME280;6606;49.154;9.280;2022-09-09T11:14:05;99290.25;;;22.33;100.00
13080;BME280;6606;49.154;9.280;2022-09-09T11:16:39;99286.81;;;22.57;100.00
13080;BME280;6606;49.154;9.280;2022-09-09T11:19:14;99291.22;;;22.67;100.00
13080;BME280;6606;49.154;9.280;2022-09-09T11:21:45;99283.69;;;22.87;100.00
13080;BME280;6606;49.154;9.280;2022-09-09T11:24:18;99275.78;;;23.10;100.00
13080;BME280;6606;49.154;9.280;2022-09-09T11:26:50;99275.25;;;22.39;100.00
13080;BME280;6606;49.154;9.280;2022-09-09T11:29:45;99278.50;;;22.59;100.00
13080;BME280;6606;49.154;9.280;2022-09-09T11:32:33;99288.69;;;22.65;100.00
13080;BME280;6606;49.154;9.280;2022-09-09T11:35:14;99279.19;;;22.53;100.00
13080;BME280;6606;49.154;9.280;2022-09-09T11:38:05;99274.41;;;23.96;100.00
13080;BME280;6606;49.154;9.280;2022-09-09T11:40:36;99265.72;;;24.64;100.00
13080;BME280;6606;49.154;9.280;2022-09-09T11:43:07;99258.53;;;24.40;100.00
13080;BME280;6606;49.154;9.280;2022-09-09T11:45:38;99259.19;;;24.03;100.00
13080;BME280;6606;49.154;9.280;2022-09-09T11:48:22;99261.44;;;23.50;100.00
13080;BME280;6606;49.154;9.280;2022-09-09T11:50:58;99272.91;;;23.68;100.00
13080;BME280;6606;49.154;9.280;2022-09-09T11:53:27;99268.81;;;23.97;100.00
13080;BME280;6606;49.154;9.280;2022-09-09T11:56:04;99265.25;;;24.52;100.00
13080;BME280;6606;49.154;9.280;2022-09-09T11:58:40;99281.53;;;25.07;100.00
13080;BME280;6606;49.154;9.280;2022-09-09T12:01:16;99271.81;;;24.58;100.00
13080;BME280;6606;49.154;9.280;2022-09-09T12:03:45;99269.34;;;24.40;96.02
13080;BME280;6606;49.154;9.280;2022-09-09T12:06:16;99277.34;;;24.73;94.06
13080;BME280;6606;49.154;9.280;2022-09-09T12:08:50;99272.78;;;24.26;90.58
13080;BME280;6606;49.154;9.280;2022-09-09T12:11:25;99274.94;;;23.09;100.00
13080;BME280;6606;49.154;9.280;2022-09-09T12:13:54;99284.47;;;22.63;100.00
13080;BME280;6606;49.154;9.280;2022-09-09T12:16:39;99274.69;;;22.27;100.00
13080;BME280;6606;49.154;9.280;2022-09-09T12:19:12;99278.28;;;22.10;100.00
13080;BME280;6606;49.154;9.280;2022-09-09T12:21:45;99274.81;;;21.91;100.00
13080;BME280;6606;49.154;9.280;2022-09-09T12:24:20;99269.63;;;21.72;100.00
13080;BME280;6606;49.154;9.280;2022-09-09T12:26:56;99265.13;;;21.55;100.00
13080;BME280;6606;49.154;9.280;2022-09-09T12:29:29;99264.75;;;21.49;100.00
13080;BME280;6606;49.154;9.280;2022-09-09T12:32:03;99252.09;;;21.32;100.00
13080;BME280;6606;49.154;9.280;2022-09-09T12:34:38;99246.50;;;21.69;100.00
13080;BME280;6606;49.154;9.280;2022-09-09T12:37:13;99247.59;;;22.11;100.00
13080;BME280;6606;49.154;9.280;2022-09-09T12:39:48;99249.38;;;22.87;100.00
13080;BME280;6606;49.154;9.280;2022-09-09T12:42:17;99247.38;;;23.55;99.98
13080;BME280;6606;49.154;9.280;2022-09-09T12:44:51;99247.13;;;24.13;99.85
13080;BME280;6606;49.154;9.280;2022-09-09T12:47:19;99236.38;;;23.81;99.01
13080;BME280;6606;49.154;9.280;2022-09-09T12:49:48;99237.84;;;23.91;96.12
13080;BME280;6606;49.154;9.280;2022-09-09T12:52:21;99249.00;;;23.97;94.29
13080;BME280;6606;49.154;9.280;2022-09-09T12:54:53;99250.41;;;24.71;88.66
13080;BME280;6606;49.154;9.280;2022-09-09T12:57:22;99253.88;;;24.57;88.00
13080;BME280;6606;49.154;9.280;2022-09-09T12:59:51;99254.63;;;24.74;83.93
13080;BME280;6606;49.154;9.280;2022-09-09T13:02:21;99250.50;;;24.07;88.28
13080;BME280;6606;49.154;9.280;2022-09-09T13:04:49;99253.75;;;24.42;91.17
13080;BME280;6606;49.154;9.280;2022-09-09T13:07:17;99246.66;;;24.41;89.52
13080;BME280;6606;49.154;9.280;2022-09-09T13:09:44;99247.41;;;24.27;90.87
13080;BME280;6606;49.154;9.280;2022-09-09T13:12:15;99242.63;;;24.29;86.66
13080;BME280;6606;49.154;9.280;2022-09-09T13:14:44;99242.91;;;24.11;89.43
13080;BME280;6606;49.154;9.280;2022-09-09T13:17:21;99241.78;;;23.81;96.28
13080;BME280;6606;49.154;9.280;2022-09-09T13:19:48;99237.22;;;23.73;100.00
13080;BME280;6606;49.154;9.280;2022-09-09T13:22:21;99242.22;;;24.56;84.45
13080;BME280;6606;49.154;9.280;2022-09-09T13:24:58;99230.69;;;24.54;85.36
13080;BME280;6606;49.154;9.280;2022-09-09T13:27:31;99228.53;;;23.94;90.60
13080;BME280;6606;49.154;9.280;2022-09-09T13:30:00;99225.53;;;23.81;94.39